Time;durP1;ratioP1;P1;durP2;ratioP2;P2;SDS_P1;SDS_P2;PMS_P1;PMS_P2;Temp;Humidity;BMP_temperature;BMP_pressure;BME280_temperature;BME280_humidity;BME280_pressure;Samples;Min_cycle;Max_cycle;Signal;HPM_P1;HPM_P2
2023/03/11 00:00:31;;;;;;;7.75;1.85;;;0.90;90.30;;;;;;5033245;28;20029;-53
2023/03/11 00:03:00;;;;;;;7.65;2.05;;;0.90;90.20;;;;;;5033739;28;20045;-55
2023/03/11 00:05:32;;;;;;;9.30;2.90;;;0.90;90.00;;;;;;5016898;28;20465;-54
2023/03/11 00:07:59;;;;;;;11.02;3.20;;;1.00;90.30;;;;;;5033516;28;20069;-56
2023/03/11 00:10:33;;;;;;;13.05;2.95;;;1.00;90.10;;;;;;5033026;28;20045;-52
2023/03/11 00:13:03;;;;;;;9.10;4.70;;;1.00;90.30;;;;;;5033289;28;20040;-55
2023/03/11 00:15:31;;;;;;;10.90;1.98;;;0.90;90.70;;;;;;5033628;28;20033;-54
2023/03/11 00:17:58;;;;;;;8.55;2.70;;;0.90;90.90;;;;;;5037577;28;20036;-51
2023/03/11 00:20:33;;;;;;;6.97;1.63;;;0.90;90.90;;;;;;5054374;28;20028;-54
2023/03/11 00:23:02;;;;;;;9.25;1.60;;;0.90;90.40;;;;;;5053539;28;20033;-48
2023/03/11 00:25:31;;;;;;;9.48;1.80;;;0.90;89.40;;;;;;5050505;28;20060;-48
2023/03/11 00:27:59;;;;;;;7.30;1.70;;;0.90;88.60;;;;;;5034437;28;20037;-51
2023/03/11 00:30:25;;;;;;;7.75;1.50;;;1.00;87.90;;;;;;5034216;28;20022;-52
2023/03/11 00:32:58;;;;;;;13.50;2.63;;;0.90;87.60;;;;;;5033310;28;20087;-48
2023/03/11 00:35:28;;;;;;;11.35;1.98;;;1.00;86.10;;;;;;5033406;28;20091;-49
2023/03/11 00:38:04;;;;;;;4.18;1.38;;;1.00;86.00;;;;;;5033365;28;21024;-47
2023/03/11 00:40:33;;;;;;;16.52;2.15;;;1.00;86.10;;;;;;5033556;28;20132;-52
2023/03/11 00:42:59;;;;;;;11.03;1.50;;;1.00;85.30;;;;;;5034406;28;20036;-48
2023/03/11 00:45:27;;;;;;;6.22;1.50;;;1.00;85.60;;;;;;5033803;28;20029;-49
2023/03/11 00:47:55;;;;;;;12.43;1.27;;;1.10;86.20;;;;;;5034309;28;20029;-49
2023/03/11 00:50:23;;;;;;;4.63;1.45;;;1.20;86.90;;;;;;5039038;28;20035;-51
2023/03/11 00:52:51;;;;;;;5.47;1.17;;;1.20;86.40;;;;;;5053062;28;20036;-56
2023/03/11 00:55:22;;;;;;;5.25;1.50;;;1.10;86.20;;;;;;5034754;28;20537;-52
2023/03/11 00:57:52;;;;;;;5.60;1.45;;;1.20;86.20;;;;;;5033187;28;20029;-50
2023/03/11 01:00:24;;;;;;;14.70;2.00;;;1.10;86.70;;;;;;5032471;28;20025;-48
2023/03/11 01:02:52;;;;;;;7.85;1.42;;;1.10;87.40;;;;;;5033790;28;20099;-46
2023/03/11 01:05:25;;;;;;;8.30;1.63;;;1.00;87.40;;;;;;5034049;28;20033;-49
2023/03/11 01:07:53;;;;;;;9.15;1.77;;;1.00;87.40;;;;;;5038707;28;20071;-48
2023/03/11 01:10:19;;;;;;;5.30;1.20;;;1.00;87.70;;;;;;5052947;28;20044;-47
2023/03/11 01:12:47;;;;;;;5.35;1.42;;;1.00;88.10;;;;;;5052455;28;20048;-48
2023/03/11 01:15:23;;;;;;;8.32;1.25;;;1.10;88.10;;;;;;5053416;28;20052;-47
2023/03/11 01:17:53;;;;;;;8.00;1.40;;;1.10;88.10;;;;;;5046475;28;20026;-51
2023/03/11 01:20:20;;;;;;;7.72;1.25;;;1.20;88.60;;;;;;5032153;28;20116;-47
2023/03/11 01:22:48;;;;;;;6.78;1.67;;;1.20;89.30;;;;;;5048889;28;20037;-46
2023/03/11 01:25:33;;;;;;;5.22;1.27;;;1.20;89.80;;;;;;5033252;28;20112;-46
2023/03/11 01:28:00;;;;;;;9.98;1.75;;;1.20;90.40;;;;;;5033474;28;20037;-48
2023/03/11 01:30:28;;;;;;;7.00;2.17;;;1.10;90.60;;;;;;5039975;28;20025;-48
2023/03/11 01:32:56;;;;;;;7.68;1.80;;;1.10;90.90;;;;;;5036125;28;20044;-47
2023/03/11 01:35:25;;;;;;;6.75;1.75;;;1.10;91.20;;;;;;5052611;28;20071;-48
2023/03/11 01:37:56;;;;;;;7.65;1.52;;;1.10;91.30;;;;;;5053764;28;20422;-48
2023/03/11 01:40:38;;;;;;;9.75;1.80;;;1.00;91.50;;;;;;5033597;28;20072;-50
2023/03/11 01:43:27;;;;;;;7.80;3.47;;;1.00;91.50;;;;;;5033496;28;20033;-54
2023/03/11 01:45:53;;;;;;;12.27;1.73;;;1.00;91.40;;;;;;5032597;28;20037;-55
2023/03/11 01:48:19;;;;;;;12.75;1.58;;;1.00;91.00;;;;;;5033429;28;20044;-54
2023/03/11 01:50:51;;;;;;;9.20;1.75;;;1.00;89.40;;;;;;5033282;28;20056;-57
2023/03/11 01:53:30;;;;;;;5.45;1.05;;;1.10;86.20;;;;;;5032289;28;20110;-58
2023/03/11 01:55:56;;;;;;;9.60;2.25;;;1.10;85.60;;;;;;5032408;28;20029;-58
2023/03/11 01:58:29;;;;;;;6.97;1.58;;;1.20;85.10;;;;;;5032714;28;20040;-59
2023/03/11 02:01:00;;;;;;;4.63;1.20;;;1.20;85.70;;;;;;5033317;28;20064;-58
2023/03/11 02:03:33;;;;;;;6.50;1.38;;;1.20;85.70;;;;;;5032351;28;20037;-55
2023/03/11 02:06:01;;;;;;;5.18;1.23;;;1.20;85.70;;;;;;5032377;28;20040;-58
2023/03/11 02:08:41;;;;;;;7.47;1.30;;;1.10;85.70;;;;;;5032018;28;20502;-58
2023/03/11 02:11:15;;;;;;;4.97;1.33;;;1.10;85.50;;;;;;5031856;28;20065;-57
2023/03/11 02:13:44;;;;;;;11.88;2.10;;;1.10;84.70;;;;;;5031726;28;20029;-57
2023/03/11 02:16:14;;;;;;;3.03;1.13;;;1.10;85.00;;;;;;5032764;28;20033;-55
2023/03/11 02:18:45;;;;;;;7.30;1.30;;;1.10;85.00;;;;;;5031219;28;20033;-55
2023/03/11 02:21:21;;;;;;;7.57;1.00;;;1.10;84.80;;;;;;5032448;28;20044;-57
2023/03/11 02:24:16;;;;;;;5.28;1.40;;;1.20;84.00;;;;;;5033110;28;20051;-53
2023/03/11 02:27:02;;;;;;;6.72;1.33;;;1.20;83.80;;;;;;5032877;28;20033;-53
2023/03/11 02:29:29;;;;;;;6.93;1.30;;;1.30;83.50;;;;;;5032460;28;20025;-56
2023/03/11 02:32:03;;;;;;;3.40;1.35;;;1.30;84.00;;;;;;5031068;28;20033;-57
2023/03/11 02:34:33;;;;;;;7.82;1.42;;;1.30;84.40;;;;;;5031099;28;20041;-59
2023/03/11 02:37:04;;;;;;;7.82;1.80;;;1.30;84.80;;;;;;5014474;28;20026;-58
2023/03/11 02:39:40;;;;;;;5.20;1.77;;;1.30;85.60;;;;;;5031885;28;20134;-58
2023/03/11 02:42:33;;;;;;;5.28;1.20;;;1.30;85.40;;;;;;5032516;28;20036;-58
2023/03/11 02:45:17;;;;;;;6.63;1.27;;;1.20;84.90;;;;;;5052123;28;20350;-60
2023/03/11 02:47:43;;;;;;;4.57;1.25;;;1.30;84.30;;;;;;5035425;28;20038;-60
2023/03/11 02:50:12;;;;;;;5.65;1.63;;;1.30;84.00;;;;;;5031261;28;20116;-60
2023/03/11 02:52:38;;;;;;;6.00;1.75;;;1.30;84.30;;;;;;5031249;28;20033;-60
2023/03/11 02:55:08;;;;;;;4.10;1.08;;;1.30;84.70;;;;;;5047984;28;20458;-59
2023/03/11 02:57:35;;;;;;;6.40;1.80;;;1.30;84.90;;;;;;5032365;28;20040;-60
2023/03/11 03:00:07;;;;;;;9.88;1.50;;;1.30;84.40;;;;;;5031797;28;20477;-60
2023/03/11 03:02:35;;;;;;;6.88;1.20;;;1.30;84.50;;;;;;5032488;28;20041;-60
2023/03/11 03:05:02;;;;;;;3.88;1.10;;;1.30;84.70;;;;;;5032754;28;20100;-60
2023/03/11 03:07:30;;;;;;;8.93;1.20;;;1.30;84.70;;;;;;5048122;28;20613;-59
2023/03/11 03:10:00;;;;;;;4.20;1.23;;;1.30;84.00;;;;;;5032347;28;20050;-60
2023/03/11 03:12:26;;;;;;;4.43;1.08;;;1.30;84.00;;;;;;5032196;28;20048;-59
2023/03/11 03:14:54;;;;;;;6.85;1.30;;;1.30;84.00;;;;;;5032739;28;20038;-59
2023/03/11 03:17:20;;;;;;;7.87;1.67;;;1.20;84.10;;;;;;5032499;28;20045;-58
2023/03/11 03:19:47;;;;;;;8.88;1.42;;;1.20;84.60;;;;;;5032428;28;20029;-57
2023/03/11 03:22:16;;;;;;;4.47;1.50;;;1.30;84.70;;;;;;5033038;28;20327;-57
2023/03/11 03:24:43;;;;;;;7.38;1.27;;;1.30;84.40;;;;;;5032770;28;20049;-56
2023/03/11 03:27:11;;;;;;;3.83;1.05;;;1.20;84.40;;;;;;5032762;28;20057;-55
2023/03/11 03:29:39;;;;;;;4.88;1.27;;;1.20;84.00;;;;;;5033016;28;20037;-55
2023/03/11 03:32:06;;;;;;;6.90;1.70;;;1.20;83.90;;;;;;5035953;28;20022;-55
2023/03/11 03:34:34;;;;;;;6.50;1.48;;;1.20;83.90;;;;;;5034948;28;20045;-53
2023/03/11 03:37:02;;;;;;;9.73;1.73;;;1.20;84.00;;;;;;5034961;28;20028;-57
2023/03/11 03:39:28;;;;;;;5.53;1.45;;;1.30;84.00;;;;;;5018191;28;20033;-54
2023/03/11 03:41:58;;;;;;;9.60;2.22;;;1.30;83.50;;;;;;5034336;28;20111;-55
2023/03/11 03:44:25;;;;;;;10.05;2.90;;;1.30;83.50;;;;;;5035592;28;20052;-57
2023/03/11 03:46:52;;;;;;;3.67;0.80;;;1.40;83.80;;;;;;5035923;28;20030;-57
2023/03/11 03:49:19;;;;;;;8.98;1.40;;;1.40;83.00;;;;;;5035895;28;20068;-58
2023/03/11 03:51:48;;;;;;;6.95;2.67;;;1.40;83.10;;;;;;5034711;28;20053;-57
2023/03/11 03:54:15;;;;;;;4.10;0.90;;;1.30;83.00;;;;;;5053556;28;20061;-55
2023/03/11 03:56:41;;;;;;;8.65;1.08;;;1.30;82.60;;;;;;5055460;28;20258;-52
2023/03/11 03:59:09;;;;;;;5.63;1.65;;;1.30;82.30;;;;;;5055609;28;20136;-49
2023/03/11 04:01:36;;;;;;;7.00;2.60;;;1.30;82.00;;;;;;5054390;28;20025;-48
2023/03/11 04:04:03;;;;;;;5.13;1.30;;;1.20;81.60;;;;;;5034136;28;20042;-47
2023/03/11 04:06:29;;;;;;;6.57;2.28;;;1.10;81.20;;;;;;5035441;28;20389;-45
2023/03/11 04:08:57;;;;;;;6.55;1.20;;;1.10;81.50;;;;;;5034130;28;20095;-45
2023/03/11 04:11:25;;;;;;;2.72;0.90;;;1.10;81.70;;;;;;5035421;28;20450;-44
2023/03/11 04:13:53;;;;;;;5.07;0.98;;;1.00;81.30;;;;;;5035437;28;20410;-44
2023/03/11 04:16:21;;;;;;;2.45;0.80;;;1.10;80.50;;;;;;5034109;28;20029;-43
2023/03/11 04:18:47;;;;;;;3.08;1.00;;;1.00;80.80;;;;;;5034133;28;20107;-42
2023/03/11 04:21:13;;;;;;;2.05;1.00;;;1.10;81.30;;;;;;5050684;28;20455;-43
2023/03/11 04:23:38;;;;;;;2.65;1.52;;;1.00;81.10;;;;;;5050765;28;20041;-41
2023/03/11 04:26:05;;;;;;;5.65;0.82;;;1.00;80.70;;;;;;5034914;28;20055;-41
2023/03/11 04:28:31;;;;;;;5.72;1.17;;;1.00;80.80;;;;;;5034716;28;20072;-41
2023/03/11 04:30:59;;;;;;;6.43;1.70;;;1.00;80.80;;;;;;5066415;28;20043;-43
2023/03/11 04:33:26;;;;;;;6.90;1.30;;;0.90;80.90;;;;;;5053697;28;20032;-43
2023/03/11 04:35:51;;;;;;;6.05;1.67;;;0.90;81.30;;;;;;5037489;28;20041;-41
2023/03/11 04:38:17;;;;;;;4.00;1.25;;;0.90;81.30;;;;;;5035116;28;20029;-41
2023/03/11 04:40:44;;;;;;;3.58;0.82;;;0.80;81.10;;;;;;5033674;28;20112;-41
2023/03/11 04:43:11;;;;;;;4.25;1.00;;;0.70;81.00;;;;;;5032947;28;20451;-40
2023/03/11 04:45:41;;;;;;;2.28;0.98;;;0.70;80.90;;;;;;5034735;28;20088;-41
2023/03/11 04:48:08;;;;;;;7.30;1.67;;;0.60;80.30;;;;;;5034697;28;20037;-40
2023/03/11 04:50:35;;;;;;;5.03;1.17;;;0.60;79.90;;;;;;5032903;28;20072;-40
2023/03/11 04:53:00;;;;;;;2.53;0.88;;;0.70;79.20;;;;;;5033157;28;20462;-40
2023/03/11 04:55:26;;;;;;;4.18;0.95;;;0.70;79.30;;;;;;5034292;28;20064;-40
2023/03/11 04:57:54;;;;;;;5.53;1.27;;;0.60;79.60;;;;;;5034704;28;20589;-40
2023/03/11 05:00:23;;;;;;;4.45;1.17;;;0.60;79.70;;;;;;5043105;28;20033;-41
2023/03/11 05:02:51;;;;;;;1.42;0.80;;;0.50;79.70;;;;;;5053893;28;20036;-41
2023/03/11 05:05:22;;;;;;;7.57;1.45;;;0.50;79.80;;;;;;5054047;28;20086;-40
2023/03/11 05:07:52;;;;;;;5.35;0.85;;;0.50;79.70;;;;;;5040774;28;20049;-40
2023/03/11 05:10:25;;;;;;;3.45;1.00;;;0.50;79.90;;;;;;5033954;28;20041;-40
2023/03/11 05:12:53;;;;;;;3.17;0.82;;;0.50;79.90;;;;;;5033932;28;20033;-41
2023/03/11 05:15:20;;;;;;;6.45;1.33;;;0.50;80.00;;;;;;5033448;28;20026;-41
2023/03/11 05:17:47;;;;;;;3.03;1.10;;;0.50;80.20;;;;;;5049116;28;20070;-42
2023/03/11 05:20:13;;;;;;;3.92;1.08;;;0.40;80.40;;;;;;5053800;28;20035;-41
2023/03/11 05:22:40;;;;;;;7.00;1.30;;;0.40;80.20;;;;;;5053088;28;20447;-41
2023/03/11 05:25:06;;;;;;;6.07;1.35;;;0.40;80.20;;;;;;5022227;28;20036;-42
2023/03/11 05:27:33;;;;;;;8.40;1.40;;;0.40;80.10;;;;;;5049457;28;20038;-42
2023/03/11 05:30:02;;;;;;;3.95;1.40;;;0.40;80.00;;;;;;5041183;28;20593;-42
2023/03/11 05:32:29;;;;;;;7.03;1.48;;;0.40;80.10;;;;;;5053633;28;20060;-42
2023/03/11 05:34:57;;;;;;;8.95;1.25;;;0.40;80.70;;;;;;5053972;28;20320;-43
2023/03/11 05:37:23;;;;;;;7.18;1.27;;;0.30;81.10;;;;;;5042961;28;20044;-42
2023/03/11 05:39:48;;;;;;;5.22;1.08;;;0.30;81.60;;;;;;5049309;28;20029;-42
2023/03/11 05:42:15;;;;;;;5.63;1.20;;;0.20;81.60;;;;;;5032459;28;20446;-42
2023/03/11 05:44:43;;;;;;;2.72;0.88;;;0.20;81.20;;;;;;5051605;28;20044;-42
2023/03/11 05:47:16;;;;;;;4.10;0.88;;;0.20;80.50;;;;;;5047040;28;20026;-42
2023/03/11 05:49:45;;;;;;;2.15;0.75;;;0.10;80.20;;;;;;5033328;28;20087;-44
2023/03/11 05:52:13;;;;;;;6.53;1.13;;;0.10;79.90;;;;;;5049296;28;20056;-42
2023/03/11 05:54:39;;;;;;;2.08;0.85;;;0.10;80.10;;;;;;5031754;28;20044;-42
2023/03/11 05:57:05;;;;;;;3.33;0.98;;;0.10;79.90;;;;;;5033380;28;20026;-42
2023/03/11 05:59:34;;;;;;;4.38;1.20;;;0.00;80.00;;;;;;5033558;28;20028;-41
2023/03/11 06:02:01;;;;;;;3.80;1.00;;;0.00;80.40;;;;;;5044191;28;20580;-41
2023/03/11 06:04:29;;;;;;;4.93;2.42;;;0.00;80.50;;;;;;5052867;28;20457;-41
2023/03/11 06:06:57;;;;;;;7.63;1.57;;;0.00;80.70;;;;;;5053496;28;20025;-41
2023/03/11 06:09:26;;;;;;;2.00;0.82;;;0.00;80.50;;;;;;5040058;28;20044;-44
2023/03/11 06:12:02;;;;;;;2.92;1.05;;;0.00;80.70;;;;;;5033263;28;20031;-41
2023/03/11 06:14:30;;;;;;;3.95;1.30;;;0.00;81.00;;;;;;5033096;28;20021;-40
2023/03/11 06:16:57;;;;;;;7.82;1.63;;;0.00;81.30;;;;;;5033074;28;20025;-42
2023/03/11 06:19:25;;;;;;;6.13;1.30;;;0.00;81.20;;;;;;5033244;28;20643;-40
2023/03/11 06:21:54;;;;;;;5.55;0.93;;;0.00;81.80;;;;;;5032468;28;20458;-39
2023/03/11 06:24:22;;;;;;;3.78;1.20;;;0.00;81.80;;;;;;5032437;28;20370;-39
2023/03/11 06:26:52;;;;;;;5.70;2.97;;;0.00;81.80;;;;;;5032040;28;20053;-40
2023/03/11 06:29:23;;;;;;;5.28;1.20;;;0.00;82.20;;;;;;5032823;28;20489;-42
2023/03/11 06:31:49;;;;;;;6.53;1.13;;;0.00;82.20;;;;;;5032768;28;20037;-39
2023/03/11 06:34:15;;;;;;;3.72;1.23;;;0.00;82.20;;;;;;5033008;28;20022;-41
2023/03/11 06:36:42;;;;;;;1.45;0.68;;;0.00;82.20;;;;;;5033099;28;20435;-41
2023/03/11 06:39:11;;;;;;;4.63;1.20;;;0.00;82.50;;;;;;5032665;28;20398;-42
2023/03/11 06:41:39;;;;;;;;;;;0.00;82.40;;;;;;5031852;28;20052;-42
2023/03/11 06:44:10;;;;;;;4.40;1.08;;;0.10;82.60;;;;;;5032431;28;20301;-40
2023/03/11 06:46:39;;;;;;;5.65;1.35;;;0.10;82.80;;;;;;5032140;28;20347;-43
2023/03/11 06:49:04;;;;;;;5.18;1.13;;;0.10;83.00;;;;;;5032110;28;20033;-42
2023/03/11 06:51:31;;;;;;;8.35;1.45;;;0.20;82.90;;;;;;5038335;28;20025;-42
2023/03/11 06:54:11;;;;;;;4.85;0.93;;;0.20;83.10;;;;;;5052217;28;20380;-41
2023/03/11 06:56:43;;;;;;;2.28;0.80;;;0.20;83.00;;;;;;5037893;28;20370;-40
2023/03/11 06:59:08;;;;;;;3.20;1.42;;;0.20;83.20;;;;;;5032236;28;20025;-41
2023/03/11 07:01:35;;;;;;;4.13;0.90;;;0.30;83.20;;;;;;5031691;28;20485;-40
2023/03/11 07:04:03;;;;;;;3.40;1.42;;;0.40;82.80;;;;;;5031413;28;20082;-41
2023/03/11 07:06:30;;;;;;;3.65;0.88;;;0.40;82.90;;;;;;5035287;28;20034;-39
2023/03/11 07:08:57;;;;;;;3.08;1.05;;;0.50;83.00;;;;;;5036175;28;20029;-39
2023/03/11 07:11:24;;;;;;;4.32;1.10;;;0.50;83.30;;;;;;5035686;28;20064;-41
2023/03/11 07:13:54;;;;;;;7.07;1.33;;;0.50;83.30;;;;;;5036360;28;20100;-40
2023/03/11 07:16:26;;;;;;;3.88;0.90;;;0.60;83.40;;;;;;5036125;28;20033;-40
2023/03/11 07:19:03;;;;;;;6.40;1.17;;;0.60;83.40;;;;;;5043787;28;20402;-43
2023/03/11 07:21:30;;;;;;;4.00;1.27;;;0.80;83.40;;;;;;5055911;28;20032;-40
2023/03/11 07:24:01;;;;;;;8.30;1.40;;;0.90;83.30;;;;;;5056248;28;20021;-43
2023/03/11 07:26:29;;;;;;;3.60;1.10;;;1.00;83.40;;;;;;5048136;28;20061;-41
2023/03/11 07:28:55;;;;;;;4.82;1.45;;;1.10;83.50;;;;;;5051745;28;20044;-42
2023/03/11 07:31:25;;;;;;;3.72;1.45;;;1.20;83.30;;;;;;5036031;28;20024;-41
2023/03/11 07:33:53;;;;;;;3.35;1.13;;;1.30;83.00;;;;;;5051316;28;20037;-42
2023/03/11 07:36:21;;;;;;;5.20;1.20;;;1.40;82.80;;;;;;5051654;28;20029;-41
2023/03/11 07:38:58;;;;;;;4.05;1.23;;;1.50;82.80;;;;;;5018738;28;20358;-44
2023/03/11 07:41:26;;;;;;;7.25;1.45;;;1.70;82.60;;;;;;5035455;28;20045;-41
2023/03/11 07:43:56;;;;;;;4.93;2.30;;;1.90;82.90;;;;;;5058044;28;20044;-40
2023/03/11 07:46:25;;;;;;;8.38;3.05;;;2.10;82.60;;;;;;5054756;28;20072;-40
2023/03/11 07:48:56;;;;;;;10.63;2.42;;;2.20;82.20;;;;;;5055879;28;20442;-40
2023/03/11 07:51:27;;;;;;;3.80;1.90;;;2.40;82.30;;;;;;5055557;28;20025;-45
2023/03/11 07:53:56;;;;;;;4.10;1.75;;;2.50;82.00;;;;;;5046964;28;20026;-41
2023/03/11 07:56:24;;;;;;;7.38;3.78;;;2.70;81.30;;;;;;5035147;28;20454;-41
2023/03/11 07:58:51;;;;;;;7.88;2.47;;;3.00;80.90;;;;;;5051040;28;20034;-41
2023/03/11 08:01:23;;;;;;;5.72;1.55;;;3.20;80.20;;;;;;5034306;28;20022;-42
2023/03/11 08:03:57;;;;;;;3.90;1.20;;;3.50;78.70;;;;;;5034559;28;20057;-43
2023/03/11 08:06:43;;;;;;;6.97;1.37;;;3.80;78.10;;;;;;5034325;28;20065;-43
2023/03/11 08:09:10;;;;;;;5.60;1.13;;;4.20;77.10;;;;;;5034667;28;20489;-46
2023/03/11 08:11:38;;;;;;;4.18;1.23;;;4.60;76.70;;;;;;5033320;28;20049;-46
2023/03/11 08:14:05;;;;;;;7.32;1.10;;;4.80;74.80;;;;;;5035456;28;20351;-47
2023/03/11 08:16:31;;;;;;;5.90;1.20;;;4.80;73.30;;;;;;5034372;28;20104;-53
2023/03/11 08:18:58;;;;;;;5.60;1.90;;;4.90;73.40;;;;;;5049956;28;20116;-52
2023/03/11 08:21:28;;;;;;;9.40;3.08;;;5.20;73.60;;;;;;5045731;28;20037;-52
2023/03/11 08:23:58;;;;;;;5.03;2.60;;;5.40;72.80;;;;;;5033846;28;20037;-55
2023/03/11 08:26:27;;;;;;;6.13;1.67;;;5.80;72.50;;;;;;5033798;28;20040;-55
2023/03/11 08:28:55;;;;;;;8.00;2.40;;;5.90;70.70;;;;;;5033931;28;20064;-51
2023/03/11 08:31:24;;;;;;;6.50;2.50;;;6.00;70.60;;;;;;5033850;28;20100;-54
2023/03/11 08:33:55;;;;;;;6.85;2.00;;;6.10;70.10;;;;;;5049487;28;20435;-54
2023/03/11 08:36:22;;;;;;;7.93;1.20;;;6.00;70.00;;;;;;5033670;28;20037;-52
2023/03/11 08:38:49;;;;;;;4.68;1.40;;;5.90;70.10;;;;;;5033789;28;20459;-50
2023/03/11 08:41:18;;;;;;;3.83;1.70;;;6.10;70.30;;;;;;5034440;28;20090;-51
2023/03/11 08:43:45;;;;;;;3.55;1.30;;;6.00;70.20;;;;;;5050079;28;20053;-49
2023/03/11 08:46:40;;;;;;;5.43;1.42;;;6.30;71.50;;;;;;5034694;28;20034;-49
2023/03/11 08:49:06;;;;;;;6.78;1.25;;;6.40;70.40;;;;;;5019761;28;20128;-48
2023/03/11 08:51:36;;;;;;;3.85;1.50;;;6.50;70.00;;;;;;5034211;28;20108;-47
2023/03/11 08:54:04;;;;;;;5.97;2.30;;;6.50;70.30;;;;;;5034015;28;20029;-46
2023/03/11 08:56:31;;;;;;;5.68;1.30;;;6.60;69.90;;;;;;5033620;28;20065;-47
2023/03/11 08:58:58;;;;;;;7.70;1.80;;;6.50;70.80;;;;;;5034624;28;20021;-47
2023/03/11 09:01:25;;;;;;;4.35;1.65;;;6.60;70.60;;;;;;5032840;28;20443;-49
2023/03/11 09:03:52;;;;;;;4.25;1.48;;;6.70;71.70;;;;;;5034043;28;20029;-47
2023/03/11 09:06:19;;;;;;;11.50;2.70;;;6.80;71.10;;;;;;5034102;28;20068;-47
2023/03/11 09:08:49;;;;;;;3.78;1.40;;;6.90;70.10;;;;;;5034460;28;20123;-46
2023/03/11 09:11:17;;;;;;;3.28;0.90;;;7.00;70.90;;;;;;5049370;28;20053;-46
2023/03/11 09:13:43;;;;;;;4.28;1.23;;;6.90;70.50;;;;;;5017208;28;20037;-48
2023/03/11 09:16:26;;;;;;;2.22;1.00;;;6.90;70.30;;;;;;5033069;28;20119;-48
2023/03/11 09:18:59;;;;;;;6.90;1.40;;;7.10;69.80;;;;;;5033042;28;20447;-46
2023/03/11 09:21:27;;;;;;;4.47;1.70;;;7.00;70.20;;;;;;5034247;28;20060;-46
2023/03/11 09:23:55;;;;;;;6.63;2.63;;;6.80;69.30;;;;;;5033835;28;20095;-47
2023/03/11 09:26:21;;;;;;;5.15;1.50;;;6.90;70.00;;;;;;5033134;28;20071;-47
2023/03/11 09:28:48;;;;;;;10.13;2.08;;;7.00;69.80;;;;;;5033940;28;20044;-48
2023/03/11 09:31:25;;;;;;;7.47;1.60;;;7.10;70.50;;;;;;5033977;28;20361;-47
2023/03/11 09:33:51;;;;;;;3.33;1.33;;;6.90;69.70;;;;;;5033568;28;20472;-49
2023/03/11 09:36:21;;;;;;;6.43;1.70;;;6.90;70.70;;;;;;5033866;28;20021;-50
2023/03/11 09:38:49;;;;;;;3.38;1.30;;;7.00;69.60;;;;;;5032695;28;20044;-48
2023/03/11 09:41:34;;;;;;;10.55;2.75;;;7.20;70.40;;;;;;5016415;28;20506;-49
2023/03/11 09:44:17;;;;;;;11.20;3.17;;;7.30;70.30;;;;;;5032679;28;20025;-49
2023/03/11 09:47:07;;;;;;;8.20;2.20;;;7.40;70.50;;;;;;5032931;28;20080;-52
2023/03/11 09:49:51;;;;;;;5.30;1.95;;;7.50;69.70;;;;;;5032669;28;20021;-57
2023/03/11 09:52:35;;;;;;;6.22;1.55;;;7.40;70.70;;;;;;5032331;28;20090;-54
2023/03/11 09:55:05;;;;;;;9.10;2.03;;;7.60;70.00;;;;;;5032216;28;20033;-56
2023/03/11 09:57:37;;;;;;;3.33;1.00;;;7.60;70.40;;;;;;5031302;28;20037;-55
2023/03/11 10:00:16;;;;;;;5.43;1.30;;;7.60;69.70;;;;;;5032481;28;20041;-57
2023/03/11 10:02:44;;;;;;;5.15;1.33;;;7.50;68.30;;;;;;5030781;28;20029;-56
2023/03/11 10:05:40;;;;;;;7.57;2.05;;;7.30;69.40;;;;;;5031453;28;20022;-57
2023/03/11 10:08:43;;;;;;;3.90;1.40;;;6.90;68.30;;;;;;5031654;28;20049;-58
2023/03/11 10:11:24;;;;;;;5.13;1.40;;;6.90;70.20;;;;;;5031972;28;20148;-58
2023/03/11 10:14:20;;;;;;;7.03;2.08;;;7.10;69.60;;;;;;5032930;28;20677;-59
2023/03/11 10:17:02;;;;;;;5.57;1.75;;;6.80;69.70;;;;;;5014903;28;20037;-59
2023/03/11 10:19:49;;;;;;;4.55;1.90;;;6.90;70.70;;;;;;5047347;28;20021;-57
2023/03/11 10:23:03;;;;;;;4.53;2.20;;;6.70;71.50;;;;;;5033071;28;20026;-55
2023/03/11 10:26:16;;;;;;;4.38;1.60;;;6.50;70.60;;;;;;5019646;28;20033;-56
2023/03/11 10:28:56;;;;;;;5.57;1.40;;;6.40;70.40;;;;;;5037495;28;20029;-52
2023/03/11 10:31:37;;;;;;;4.18;1.35;;;6.30;71.40;;;;;;5038262;28;20064;-48
2023/03/11 10:34:40;;;;;;;9.77;1.15;;;6.10;72.40;;;;;;5033028;28;20049;-47
2023/03/11 10:37:44;;;;;;;5.47;1.70;;;6.40;72.10;;;;;;5031762;28;20044;-46
2023/03/11 10:40:41;;;;;;;4.20;1.33;;;6.60;71.50;;;;;;5034396;28;20029;-43
2023/03/11 10:43:16;;;;;;;7.68;1.40;;;6.70;71.60;;;;;;5036874;28;20097;-43
2023/03/11 10:45:47;;;;;;;2.58;0.70;;;6.90;72.10;;;;;;5035996;28;20554;-42
2023/03/11 10:48:23;;;;;;;6.07;0.93;;;6.80;66.10;;;;;;5036172;28;20037;-42
2023/03/11 10:51:10;;;;;;;2.95;0.80;;;6.60;65.90;;;;;;5055919;28;20040;-40
2023/03/11 10:53:58;;;;;;;5.93;0.85;;;6.60;67.00;;;;;;5055838;28;20021;-43
2023/03/11 10:56:48;;;;;;;5.32;0.70;;;6.60;66.30;;;;;;5041144;28;20037;-39
2023/03/11 10:59:44;;;;;;;3.20;0.47;;;6.80;67.30;;;;;;5036595;28;20046;-43
2023/03/11 11:02:30;;;;;;;4.82;1.02;;;6.70;65.20;;;;;;5036690;28;20117;-40
2023/03/11 11:05:15;;;;;;;4.28;0.70;;;6.60;65.40;;;;;;5045049;28;20022;-41
2023/03/11 11:07:45;;;;;;;2.28;0.80;;;6.40;65.20;;;;;;5052265;28;20136;-43
2023/03/11 11:10:26;;;;;;;3.30;0.70;;;6.50;66.60;;;;;;5035353;28;20053;-40
2023/03/11 11:13:02;;;;;;;4.28;0.90;;;6.70;66.60;;;;;;5034764;28;20091;-40
2023/03/11 11:15:35;;;;;;;2.33;0.70;;;6.80;66.50;;;;;;5036058;28;20060;-42
2023/03/11 11:18:30;;;;;;;2.70;0.85;;;6.70;65.20;;;;;;5035565;28;20018;-44
2023/03/11 11:21:16;;;;;;;1.58;0.50;;;6.90;65.30;;;;;;5052536;28;20461;-43
2023/03/11 11:24:08;;;;;;;2.30;0.60;;;6.70;65.00;;;;;;5054009;28;20029;-43
2023/03/11 11:26:35;;;;;;;5.03;0.68;;;6.60;64.70;;;;;;5051057;28;20028;-42
2023/03/11 11:29:19;;;;;;;5.82;0.88;;;6.80;66.40;;;;;;5035643;28;20025;-44
2023/03/11 11:31:47;;;;;;;3.75;0.70;;;6.80;66.30;;;;;;5035505;28;20481;-45
2023/03/11 11:34:35;;;;;;;2.85;0.70;;;6.70;66.30;;;;;;5047257;28;20048;-43
2023/03/11 11:37:04;;;;;;;2.63;0.90;;;6.80;65.70;;;;;;5046683;28;20034;-43
2023/03/11 11:39:50;;;;;;;3.20;0.80;;;6.90;65.30;;;;;;5034526;28;20030;-48
2023/03/11 11:42:21;;;;;;;1.70;0.45;;;6.80;65.30;;;;;;5052875;28;20033;-44
2023/03/11 11:44:57;;;;;;;3.10;0.80;;;6.80;64.30;;;;;;5047466;28;20030;-42
2023/03/11 11:47:33;;;;;;;2.55;0.70;;;6.50;65.10;;;;;;5018368;28;20038;-42
2023/03/11 11:50:45;;;;;;;3.50;0.73;;;6.50;66.30;;;;;;5034252;28;20107;-42
2023/03/11 11:53:45;;;;;;;1.50;0.52;;;6.40;66.50;;;;;;5034507;28;20030;-43
2023/03/11 11:56:12;;;;;;;2.72;0.82;;;6.10;66.70;;;;;;5039438;28;20033;-43
2023/03/11 11:58:41;;;;;;;3.90;1.15;;;6.30;67.70;;;;;;5054419;28;20021;-47
2023/03/11 12:01:25;;;;;;;4.28;0.80;;;6.20;66.30;;;;;;5045407;28;20025;-45
2023/03/11 12:04:29;;;;;;;4.05;0.90;;;6.20;67.10;;;;;;5035281;28;20022;-44
2023/03/11 12:07:55;;;;;;;3.72;0.80;;;6.10;67.60;;;;;;5036176;28;20037;-46
2023/03/11 12:10:34;;;;;;;4.03;1.02;;;6.00;70.30;;;;;;4974524;28;20055;-47
2023/03/11 12:13:36;;;;;;;6.28;0.80;;;5.90;72.60;;;;;;4976580;28;20045;-45
2023/03/11 12:16:28;;;;;;;4.18;0.95;;;5.80;73.90;;;;;;5011880;28;20042;-45
2023/03/11 12:19:02;;;;;;;3.53;0.88;;;5.50;74.40;;;;;;5015261;28;20030;-45
2023/03/11 12:21:50;;;;;;;3.65;1.58;;;5.40;75.20;;;;;;5015811;28;20375;-45
2023/03/11 12:24:41;;;;;;;7.95;1.60;;;5.40;75.50;;;;;;5014086;28;20045;-46
2023/03/11 12:27:43;;;;;;;2.83;0.77;;;5.70;74.40;;;;;;5015514;28;20041;-45
2023/03/11 12:30:27;;;;;;;3.63;0.82;;;6.00;74.50;;;;;;5011565;28;20062;-44
2023/03/11 12:33:17;;;;;;;5.10;1.15;;;6.40;72.60;;;;;;5013946;28;20037;-46
2023/03/11 12:35:54;;;;;;;;;;;6.50;69.30;;;;;;5015774;28;20022;-48
2023/03/11 12:38:31;;;;;;;5.35;0.65;;;6.80;69.00;;;;;;5013960;28;19924;-44
2023/03/11 12:41:21;;;;;;;2.35;1.15;;;6.90;68.30;;;;;;5014802;28;20355;-48
2023/03/11 12:43:50;;;;;;;3.03;0.93;;;7.10;67.10;;;;;;5014135;28;20029;-45
2023/03/11 12:46:18;;;;;;;2.70;0.70;;;7.20;66.50;;;;;;5013866;28;20025;-45
2023/03/11 12:49:06;;;;;;;4.60;0.55;;;7.30;65.10;;;;;;5013907;28;20041;-44
2023/03/11 12:51:52;;;;;;;2.38;0.70;;;7.20;65.10;;;;;;5014271;28;20029;-43
2023/03/11 12:54:44;;;;;;;2.88;0.70;;;6.90;65.80;;;;;;5023124;28;20399;-48
2023/03/11 12:57:16;;;;;;;4.03;0.60;;;7.00;66.10;;;;;;5033815;28;20029;-47
2023/03/11 13:00:01;;;;;;;4.20;0.77;;;6.90;64.60;;;;;;5021190;28;20360;-47
2023/03/11 13:02:57;;;;;;;4.75;1.63;;;6.80;66.40;;;;;;5013561;28;20026;-46
2023/03/11 13:05:41;;;;;;;2.97;0.70;;;6.70;66.00;;;;;;5012774;28;20117;-44
2023/03/11 13:08:20;;;;;;;2.65;0.60;;;6.60;66.70;;;;;;5013954;28;20029;-44
2023/03/11 13:10:50;;;;;;;3.53;0.63;;;6.40;65.90;;;;;;5027210;28;20347;-42
2023/03/11 13:13:38;;;;;;;4.88;0.88;;;6.40;65.60;;;;;;5033569;28;20052;-47
2023/03/11 13:16:15;;;;;;;4.80;1.30;;;6.30;66.40;;;;;;5033739;28;20032;-45
2023/03/11 13:18:47;;;;;;;3.55;0.60;;;6.30;67.30;;;;;;5033660;28;20068;-50
2023/03/11 13:21:33;;;;;;;2.90;1.08;;;6.30;68.40;;;;;;5032404;28;20045;-45
2023/03/11 13:24:24;;;;;;;2.50;0.93;;;6.20;69.10;;;;;;5033031;28;20482;-46
2023/03/11 13:27:13;;;;;;;3.80;0.68;;;6.10;68.30;;;;;;5033834;28;20040;-43
2023/03/11 13:29:56;;;;;;;3.57;0.90;;;6.10;67.10;;;;;;5032775;28;20037;-42